sensor_id;sensor_type;location;lat;lon;timestamp;P1;durP1;ratioP1;P2;durP2;ratioP2
21593;SDS011;10959;51.328;7.322;2023-02-22T00:01:40;153.83;;;19.10;;
21593;SDS011;10959;51.328;7.322;2023-02-22T00:04:14;227.23;;;22.00;;
21593;SDS011;10959;51.328;7.322;2023-02-22T00:06:46;37.93;;;15.27;;
21593;SDS011;10959;51.328;7.322;2023-02-22T00:09:14;84.87;;;17.47;;
21593;SDS011;10959;51.328;7.322;2023-02-22T00:11:45;60.70;;;16.67;;
21593;SDS011;10959;51.328;7.322;2023-02-22T00:14:12;52.33;;;15.57;;
21593;SDS011;10959;51.328;7.322;2023-02-22T00:16:39;30.57;;;14.13;;
21593;SDS011;10959;51.328;7.322;2023-02-22T00:19:05;161.77;;;21.60;;
21593;SDS011;10959;51.328;7.322;2023-02-22T00:21:32;235.63;;;25.63;;
21593;SDS011;10959;51.328;7.322;2023-02-22T00:24:00;49.40;;;15.23;;
21593;SDS011;10959;51.328;7.322;2023-02-22T00:26:41;16.07;;;11.83;;
21593;SDS011;10959;51.328;7.322;2023-02-22T00:29:07;32.50;;;15.20;;
21593;SDS011;10959;51.328;7.322;2023-02-22T00:31:35;19.77;;;13.20;;
21593;SDS011;10959;51.328;7.322;2023-02-22T00:34:03;184.50;;;21.17;;
21593;SDS011;10959;51.328;7.322;2023-02-22T00:36:29;191.70;;;21.67;;
21593;SDS011;10959;51.328;7.322;2023-02-22T00:38:56;274.07;;;24.97;;
21593;SDS011;10959;51.328;7.322;2023-02-22T00:41:24;300.87;;;26.17;;
21593;SDS011;10959;51.328;7.322;2023-02-22T00:43:50;30.17;;;14.90;;
21593;SDS011;10959;51.328;7.322;2023-02-22T00:46:17;166.03;;;24.80;;
21593;SDS011;10959;51.328;7.322;2023-02-22T00:48:43;23.30;;;14.63;;
21593;SDS011;10959;51.328;7.322;2023-02-22T00:51:10;34.87;;;15.63;;
21593;SDS011;10959;51.328;7.322;2023-02-22T00:53:37;107.23;;;18.97;;
21593;SDS011;10959;51.328;7.322;2023-02-22T00:56:03;41.57;;;14.60;;
21593;SDS011;10959;51.328;7.322;2023-02-22T00:58:32;67.90;;;15.07;;
21593;SDS011;10959;51.328;7.322;2023-02-22T01:00:58;26.43;;;14.17;;
21593;SDS011;10959;51.328;7.322;2023-02-22T01:03:25;145.67;;;19.07;;
21593;SDS011;10959;51.328;7.322;2023-02-22T01:05:51;191.50;;;19.10;;
21593;SDS011;10959;51.328;7.322;2023-02-22T01:08:18;166.97;;;20.17;;
21593;SDS011;10959;51.328;7.322;2023-02-22T01:10:45;253.23;;;21.10;;
21593;SDS011;10959;51.328;7.322;2023-02-22T01:13:11;271.33;;;25.17;;
21593;SDS011;10959;51.328;7.322;2023-02-22T01:15:40;26.53;;;14.37;;
21593;SDS011;10959;51.328;7.322;2023-02-22T01:18:09;20.33;;;13.00;;
21593;SDS011;10959;51.328;7.322;2023-02-22T01:20:37;42.23;;;15.20;;
21593;SDS011;10959;51.328;7.322;2023-02-22T01:23:04;117.73;;;19.93;;
21593;SDS011;10959;51.328;7.322;2023-02-22T01:25:32;62.20;;;15.70;;
21593;SDS011;10959;51.328;7.322;2023-02-22T01:27:59;21.47;;;12.57;;
21593;SDS011;10959;51.328;7.322;2023-02-22T01:30:28;83.43;;;15.60;;
21593;SDS011;10959;51.328;7.322;2023-02-22T01:32:58;46.03;;;13.23;;
21593;SDS011;10959;51.328;7.322;2023-02-22T01:35:26;53.37;;;14.40;;
21593;SDS011;10959;51.328;7.322;2023-02-22T01:37:54;23.80;;;12.07;;
21593;SDS011;10959;51.328;7.322;2023-02-22T01:40:22;79.07;;;15.70;;
21593;SDS011;10959;51.328;7.322;2023-02-22T01:42:51;43.53;;;13.30;;
21593;SDS011;10959;51.328;7.322;2023-02-22T01:45:34;31.77;;;13.90;;
21593;SDS011;10959;51.328;7.322;2023-02-22T01:48:11;24.97;;;11.60;;
21593;SDS011;10959;51.328;7.322;2023-02-22T01:50:43;43.47;;;12.70;;
21593;SDS011;10959;51.328;7.322;2023-02-22T01:53:13;19.43;;;12.33;;
21593;SDS011;10959;51.328;7.322;2023-02-22T01:55:43;50.30;;;14.30;;
21593;SDS011;10959;51.328;7.322;2023-02-22T01:58:11;105.30;;;15.87;;
21593;SDS011;10959;51.328;7.322;2023-02-22T02:00:40;19.57;;;11.43;;
21593;SDS011;10959;51.328;7.322;2023-02-22T02:03:11;32.50;;;12.40;;
21593;SDS011;10959;51.328;7.322;2023-02-22T02:05:42;33.57;;;12.40;;
21593;SDS011;10959;51.328;7.322;2023-02-22T02:08:11;34.40;;;12.67;;
21593;SDS011;10959;51.328;7.322;2023-02-22T02:10:45;52.97;;;13.73;;
21593;SDS011;10959;51.328;7.322;2023-02-22T02:13:13;36.43;;;12.33;;
21593;SDS011;10959;51.328;7.322;2023-02-22T02:15:40;29.37;;;11.63;;
21593;SDS011;10959;51.328;7.322;2023-02-22T02:18:08;34.93;;;11.50;;
21593;SDS011;10959;51.328;7.322;2023-02-22T02:20:41;18.03;;;10.13;;
21593;SDS011;10959;51.328;7.322;2023-02-22T02:23:18;22.17;;;10.50;;
21593;SDS011;10959;51.328;7.322;2023-02-22T02:26:09;31.83;;;11.37;;
21593;SDS011;10959;51.328;7.322;2023-02-22T02:28:59;22.20;;;10.40;;
21593;SDS011;10959;51.328;7.322;2023-02-22T02:32:01;21.10;;;9.47;;
21593;SDS011;10959;51.328;7.322;2023-02-22T02:34:45;17.53;;;9.17;;
21593;SDS011;10959;51.328;7.322;2023-02-22T02:37:20;14.93;;;8.80;;
21593;SDS011;10959;51.328;7.322;2023-02-22T02:39:55;17.80;;;8.87;;
21593;SDS011;10959;51.328;7.322;2023-02-22T02:42:37;42.13;;;9.97;;
21593;SDS011;10959;51.328;7.322;2023-02-22T02:45:08;10.40;;;8.20;;
21593;SDS011;10959;51.328;7.322;2023-02-22T02:47:43;9.20;;;8.20;;
21593;SDS011;10959;51.328;7.322;2023-02-22T02:50:12;12.20;;;9.47;;
21593;SDS011;10959;51.328;7.322;2023-02-22T02:52:44;9.87;;;8.37;;
21593;SDS011;10959;51.328;7.322;2023-02-22T02:55:11;10.50;;;7.50;;
21593;SDS011;10959;51.328;7.322;2023-02-22T02:57:39;12.23;;;9.37;;
21593;SDS011;10959;51.328;7.322;2023-02-22T03:00:06;17.63;;;11.77;;
21593;SDS011;10959;51.328;7.322;2023-02-22T03:02:49;19.33;;;11.57;;
21593;SDS011;10959;51.328;7.322;2023-02-22T03:05:38;16.93;;;11.87;;
21593;SDS011;10959;51.328;7.322;2023-02-22T03:08:19;20.97;;;12.40;;
21593;SDS011;10959;51.328;7.322;2023-02-22T03:10:54;20.67;;;12.67;;
21593;SDS011;10959;51.328;7.322;2023-02-22T03:13:29;20.43;;;12.60;;
21593;SDS011;10959;51.328;7.322;2023-02-22T03:16:05;19.97;;;14.00;;
21593;SDS011;10959;51.328;7.322;2023-02-22T03:18:48;21.87;;;14.23;;
21593;SDS011;10959;51.328;7.322;2023-02-22T03:21:21;19.13;;;13.10;;
21593;SDS011;10959;51.328;7.322;2023-02-22T03:23:55;23.03;;;14.13;;
21593;SDS011;10959;51.328;7.322;2023-02-22T03:26:27;21.27;;;14.10;;
21593;SDS011;10959;51.328;7.322;2023-02-22T03:28:58;23.47;;;14.07;;
21593;SDS011;10959;51.328;7.322;2023-02-22T03:31:30;18.90;;;12.23;;
21593;SDS011;10959;51.328;7.322;2023-02-22T03:34:03;21.40;;;13.40;;
21593;SDS011;10959;51.328;7.322;2023-02-22T03:36:34;17.90;;;12.73;;
21593;SDS011;10959;51.328;7.322;2023-02-22T03:39:05;19.47;;;12.73;;
21593;SDS011;10959;51.328;7.322;2023-02-22T03:41:36;19.37;;;14.20;;
21593;SDS011;10959;51.328;7.322;2023-02-22T03:44:05;24.03;;;14.67;;
21593;SDS011;10959;51.328;7.322;2023-02-22T03:46:36;20.23;;;13.27;;
21593;SDS011;10959;51.328;7.322;2023-02-22T03:49:08;18.07;;;13.60;;
21593;SDS011;10959;51.328;7.322;2023-02-22T03:51:37;20.40;;;13.50;;
21593;SDS011;10959;51.328;7.322;2023-02-22T03:54:04;16.97;;;11.50;;
21593;SDS011;10959;51.328;7.322;2023-02-22T03:56:32;16.03;;;12.53;;
21593;SDS011;10959;51.328;7.322;2023-02-22T03:59:03;19.70;;;13.20;;
21593;SDS011;10959;51.328;7.322;2023-02-22T04:01:31;18.20;;;13.07;;
21593;SDS011;10959;51.328;7.322;2023-02-22T04:03:59;20.57;;;13.90;;
21593;SDS011;10959;51.328;7.322;2023-02-22T04:06:27;20.80;;;13.57;;
21593;SDS011;10959;51.328;7.322;2023-02-22T04:08:54;23.07;;;14.37;;
21593;SDS011;10959;51.328;7.322;2023-02-22T04:11:21;20.63;;;14.47;;
21593;SDS011;10959;51.328;7.322;2023-02-22T04:13:48;22.83;;;13.40;;
21593;SDS011;10959;51.328;7.322;2023-02-22T04:16:14;17.30;;;12.53;;
21593;SDS011;10959;51.328;7.322;2023-02-22T04:18:41;16.10;;;11.80;;
21593;SDS011;10959;51.328;7.322;2023-02-22T04:21:07;22.83;;;15.87;;
21593;SDS011;10959;51.328;7.322;2023-02-22T04:23:35;18.93;;;13.47;;
21593;SDS011;10959;51.328;7.322;2023-02-22T04:26:02;17.57;;;12.37;;
21593;SDS011;10959;51.328;7.322;2023-02-22T04:28:29;16.60;;;11.73;;
21593;SDS011;10959;51.328;7.322;2023-02-22T04:30:55;18.40;;;11.80;;
21593;SDS011;10959;51.328;7.322;2023-02-22T04:33:22;15.60;;;10.93;;
21593;SDS011;10959;51.328;7.322;2023-02-22T04:35:48;14.87;;;11.30;;
21593;SDS011;10959;51.328;7.322;2023-02-22T04:38:15;18.43;;;12.73;;
21593;SDS011;10959;51.328;7.322;2023-02-22T04:40:43;18.47;;;12.27;;
21593;SDS011;10959;51.328;7.322;2023-02-22T04:43:11;14.47;;;10.17;;
21593;SDS011;10959;51.328;7.322;2023-02-22T04:45:37;18.90;;;12.67;;
21593;SDS011;10959;51.328;7.322;2023-02-22T04:48:04;18.87;;;13.07;;
21593;SDS011;10959;51.328;7.322;2023-02-22T04:50:31;17.67;;;12.27;;
21593;SDS011;10959;51.328;7.322;2023-02-22T04:52:57;17.73;;;11.90;;
21593;SDS011;10959;51.328;7.322;2023-02-22T04:55:24;18.90;;;12.27;;
21593;SDS011;10959;51.328;7.322;2023-02-22T04:57:53;18.20;;;12.47;;
21593;SDS011;10959;51.328;7.322;2023-02-22T05:00:20;19.37;;;12.97;;
21593;SDS011;10959;51.328;7.322;2023-02-22T05:02:47;18.37;;;12.70;;
21593;SDS011;10959;51.328;7.322;2023-02-22T05:05:15;18.40;;;13.37;;
21593;SDS011;10959;51.328;7.322;2023-02-22T05:07:43;17.63;;;12.13;;
21593;SDS011;10959;51.328;7.322;2023-02-22T05:10:10;17.60;;;12.03;;
21593;SDS011;10959;51.328;7.322;2023-02-22T05:12:37;18.17;;;12.60;;
21593;SDS011;10959;51.328;7.322;2023-02-22T05:15:06;19.10;;;12.30;;
21593;SDS011;10959;51.328;7.322;2023-02-22T05:17:33;16.90;;;12.60;;
21593;SDS011;10959;51.328;7.322;2023-02-22T05:20:01;19.50;;;13.57;;
21593;SDS011;10959;51.328;7.322;2023-02-22T05:22:29;18.33;;;13.10;;
21593;SDS011;10959;51.328;7.322;2023-02-22T05:24:56;17.10;;;12.33;;
21593;SDS011;10959;51.328;7.322;2023-02-22T05:27:22;16.23;;;12.00;;
21593;SDS011;10959;51.328;7.322;2023-02-22T05:29:49;20.00;;;12.50;;
21593;SDS011;10959;51.328;7.322;2023-02-22T05:32:17;17.70;;;12.40;;
21593;SDS011;10959;51.328;7.322;2023-02-22T05:34:43;20.40;;;14.03;;
21593;SDS011;10959;51.328;7.322;2023-02-22T05:37:10;16.77;;;12.77;;
21593;SDS011;10959;51.328;7.322;2023-02-22T05:39:37;17.20;;;12.60;;
21593;SDS011;10959;51.328;7.322;2023-02-22T05:42:03;18.50;;;14.17;;
21593;SDS011;10959;51.328;7.322;2023-02-22T05:44:30;20.23;;;12.60;;
21593;SDS011;10959;51.328;7.322;2023-02-22T05:46:56;18.30;;;13.97;;
21593;SDS011;10959;51.328;7.322;2023-02-22T05:49:24;22.73;;;14.67;;
21593;SDS011;10959;51.328;7.322;2023-02-22T05:51:50;20.17;;;15.43;;
21593;SDS011;10959;51.328;7.322;2023-02-22T05:54:17;17.83;;;13.90;;
21593;SDS011;10959;51.328;7.322;2023-02-22T05:56:43;19.07;;;14.40;;
21593;SDS011;10959;51.328;7.322;2023-02-22T05:59:10;21.53;;;14.33;;
21593;SDS011;10959;51.328;7.322;2023-02-22T06:01:36;20.70;;;15.07;;
21593;SDS011;10959;51.328;7.322;2023-02-22T06:04:03;18.63;;;14.63;;
21593;SDS011;10959;51.328;7.322;2023-02-22T06:06:31;22.83;;;16.43;;
21593;SDS011;10959;51.328;7.322;2023-02-22T06:08:57;22.07;;;15.67;;
21593;SDS011;10959;51.328;7.322;2023-02-22T06:11:24;21.07;;;16.50;;
21593;SDS011;10959;51.328;7.322;2023-02-22T06:13:50;20.70;;;14.67;;
21593;SDS011;10959;51.328;7.322;2023-02-22T06:16:18;23.27;;;15.20;;
21593;SDS011;10959;51.328;7.322;2023-02-22T06:18:45;24.37;;;17.00;;
21593;SDS011;10959;51.328;7.322;2023-02-22T06:21:11;22.20;;;15.90;;
21593;SDS011;10959;51.328;7.322;2023-02-22T06:23:39;22.37;;;16.17;;
21593;SDS011;10959;51.328;7.322;2023-02-22T06:26:06;25.67;;;17.73;;
21593;SDS011;10959;51.328;7.322;2023-02-22T06:28:32;22.57;;;16.70;;
21593;SDS011;10959;51.328;7.322;2023-02-22T06:30:59;21.53;;;16.33;;
21593;SDS011;10959;51.328;7.322;2023-02-22T06:33:25;22.67;;;17.20;;
21593;SDS011;10959;51.328;7.322;2023-02-22T06:35:52;24.40;;;16.73;;
21593;SDS011;10959;51.328;7.322;2023-02-22T06:38:21;22.27;;;14.80;;
21593;SDS011;10959;51.328;7.322;2023-02-22T06:40:50;24.00;;;16.73;;
21593;SDS011;10959;51.328;7.322;2023-02-22T06:43:17;22.47;;;16.93;;
21593;SDS011;10959;51.328;7.322;2023-02-22T06:45:43;21.37;;;16.53;;
21593;SDS011;10959;51.328;7.322;2023-02-22T06:48:10;23.23;;;16.83;;
21593;SDS011;10959;51.328;7.322;2023-02-22T06:50:37;20.63;;;15.07;;
21593;SDS011;10959;51.328;7.322;2023-02-22T06:53:03;22.67;;;16.80;;
21593;SDS011;10959;51.328;7.322;2023-02-22T06:55:31;24.33;;;17.43;;
21593;SDS011;10959;51.328;7.322;2023-02-22T06:58:01;17.90;;;14.20;;
21593;SDS011;10959;51.328;7.322;2023-02-22T07:00:29;22.20;;;17.00;;
21593;SDS011;10959;51.328;7.322;2023-02-22T07:02:57;20.83;;;15.80;;
21593;SDS011;10959;51.328;7.322;2023-02-22T07:05:24;21.53;;;16.03;;
21593;SDS011;10959;51.328;7.322;2023-02-22T07:07:53;22.87;;;16.60;;
21593;SDS011;10959;51.328;7.322;2023-02-22T07:10:21;20.57;;;15.53;;
21593;SDS011;10959;51.328;7.322;2023-02-22T07:12:49;24.37;;;16.20;;
21593;SDS011;10959;51.328;7.322;2023-02-22T07:15:19;22.83;;;17.30;;
21593;SDS011;10959;51.328;7.322;2023-02-22T07:17:47;18.97;;;15.03;;
21593;SDS011;10959;51.328;7.322;2023-02-22T07:20:14;23.00;;;16.10;;
21593;SDS011;10959;51.328;7.322;2023-02-22T07:22:41;20.83;;;16.00;;
21593;SDS011;10959;51.328;7.322;2023-02-22T07:25:08;19.50;;;15.23;;
21593;SDS011;10959;51.328;7.322;2023-02-22T07:27:36;19.93;;;15.63;;
21593;SDS011;10959;51.328;7.322;2023-02-22T07:30:03;21.30;;;16.00;;
21593;SDS011;10959;51.328;7.322;2023-02-22T07:32:32;20.50;;;15.47;;
21593;SDS011;10959;51.328;7.322;2023-02-22T07:34:59;19.63;;;15.10;;
21593;SDS011;10959;51.328;7.322;2023-02-22T07:37:26;20.60;;;15.50;;
21593;SDS011;10959;51.328;7.322;2023-02-22T07:39:53;20.63;;;16.07;;
21593;SDS011;10959;51.328;7.322;2023-02-22T07:42:20;19.83;;;14.13;;
21593;SDS011;10959;51.328;7.322;2023-02-22T07:44:46;18.40;;;13.33;;
21593;SDS011;10959;51.328;7.322;2023-02-22T07:47:12;19.17;;;14.40;;
21593;SDS011;10959;51.328;7.322;2023-02-22T07:49:41;18.10;;;13.37;;
21593;SDS011;10959;51.328;7.322;2023-02-22T07:52:07;19.03;;;14.23;;
21593;SDS011;10959;51.328;7.322;2023-02-22T07:54:34;17.73;;;12.57;;
21593;SDS011;10959;51.328;7.322;2023-02-22T07:57:01;17.77;;;13.50;;
21593;SDS011;10959;51.328;7.322;2023-02-22T07:59:27;17.87;;;13.90;;
21593;SDS011;10959;51.328;7.322;2023-02-22T08:01:54;16.40;;;12.60;;
21593;SDS011;10959;51.328;7.322;2023-02-22T08:04:20;17.93;;;12.80;;
21593;SDS011;10959;51.328;7.322;2023-02-22T08:06:48;18.17;;;13.43;;
21593;SDS011;10959;51.328;7.322;2023-02-22T08:09:15;14.93;;;12.07;;
21593;SDS011;10959;51.328;7.322;2023-02-22T08:11:42;18.37;;;13.70;;
21593;SDS011;10959;51.328;7.322;2023-02-22T08:14:08;16.50;;;12.50;;
21593;SDS011;10959;51.328;7.322;2023-02-22T08:16:35;19.67;;;13.30;;
21593;SDS011;10959;51.328;7.322;2023-02-22T08:19:01;13.47;;;11.80;;
21593;SDS011;10959;51.328;7.322;2023-02-22T08:21:28;17.97;;;12.47;;
21593;SDS011;10959;51.328;7.322;2023-02-22T08:23:56;16.13;;;12.40;;
21593;SDS011;10959;51.328;7.322;2023-02-22T08:26:22;14.57;;;11.60;;
21593;SDS011;10959;51.328;7.322;2023-02-22T08:28:49;15.13;;;11.27;;
21593;SDS011;10959;51.328;7.322;2023-02-22T08:31:16;16.47;;;11.53;;
21593;SDS011;10959;51.328;7.322;2023-02-22T08:33:42;15.90;;;10.80;;
21593;SDS011;10959;51.328;7.322;2023-02-22T08:36:12;15.03;;;11.67;;
21593;SDS011;10959;51.328;7.322;2023-02-22T08:38:39;14.53;;;11.63;;
21593;SDS011;10959;51.328;7.322;2023-02-22T08:41:07;15.00;;;11.20;;
21593;SDS011;10959;51.328;7.322;2023-02-22T08:43:34;13.83;;;10.67;;
21593;SDS011;10959;51.328;7.322;2023-02-22T08:46:00;14.10;;;10.10;;
21593;SDS011;10959;51.328;7.322;2023-02-22T08:48:27;12.27;;;10.20;;
21593;SDS011;10959;51.328;7.322;2023-02-22T08:50:54;11.93;;;10.33;;
21593;SDS011;10959;51.328;7.322;2023-02-22T08:53:20;14.63;;;10.87;;
21593;SDS011;10959;51.328;7.322;2023-02-22T08:55:47;12.23;;;10.43;;
21593;SDS011;10959;51.328;7.322;2023-02-22T08:58:15;15.00;;;11.40;;
21593;SDS011;10959;51.328;7.322;2023-02-22T09:00:42;12.67;;;9.67;;
21593;SDS011;10959;51.328;7.322;2023-02-22T09:03:10;12.07;;;9.70;;
21593;SDS011;10959;51.328;7.322;2023-02-22T09:05:38;13.53;;;9.40;;
21593;SDS011;10959;51.328;7.322;2023-02-22T09:08:04;15.60;;;10.03;;
21593;SDS011;10959;51.328;7.322;2023-02-22T09:10:32;13.27;;;10.10;;
21593;SDS011;10959;51.328;7.322;2023-02-22T09:12:59;12.90;;;9.10;;
21593;SDS011;10959;51.328;7.322;2023-02-22T09:15:29;12.03;;;8.87;;
21593;SDS011;10959;51.328;7.322;2023-02-22T09:17:56;14.57;;;9.13;;
21593;SDS011;10959;51.328;7.322;2023-02-22T09:20:23;11.30;;;8.73;;
21593;SDS011;10959;51.328;7.322;2023-02-22T09:22:51;10.93;;;7.87;;
21593;SDS011;10959;51.328;7.322;2023-02-22T09:25:18;13.07;;;9.07;;
21593;SDS011;10959;51.328;7.322;2023-02-22T09:27:46;10.23;;;8.37;;
21593;SDS011;10959;51.328;7.322;2023-02-22T09:30:17;13.50;;;9.30;;
21593;SDS011;10959;51.328;7.322;2023-02-22T09:32:50;12.03;;;9.27;;
21593;SDS011;10959;51.328;7.322;2023-02-22T09:35:18;11.00;;;9.17;;
21593;SDS011;10959;51.328;7.322;2023-02-22T09:37:50;11.90;;;8.70;;
21593;SDS011;10959;51.328;7.322;2023-02-22T09:40:18;9.63;;;8.13;;
21593;SDS011;10959;51.328;7.322;2023-02-22T09:42:52;10.43;;;8.73;;
21593;SDS011;10959;51.328;7.322;2023-02-22T09:45:28;12.70;;;8.87;;
21593;SDS011;10959;51.328;7.322;2023-02-22T09:48:02;11.17;;;8.37;;
21593;SDS011;10959;51.328;7.322;2023-02-22T09:50:33;11.10;;;8.40;;
21593;SDS011;10959;51.328;7.322;2023-02-22T09:53:22;12.00;;;8.00;;
21593;SDS011;10959;51.328;7.322;2023-02-22T09:55:54;9.67;;;7.73;;
21593;SDS011;10959;51.328;7.322;2023-02-22T09:58:29;13.67;;;7.43;;
21593;SDS011;10959;51.328;7.322;2023-02-22T10:01:01;11.00;;;8.03;;
21593;SDS011;10959;51.328;7.322;2023-02-22T10:03:41;9.43;;;6.40;;
21593;SDS011;10959;51.328;7.322;2023-02-22T10:06:16;9.47;;;7.23;;
21593;SDS011;10959;51.328;7.322;2023-02-22T10:08:47;8.97;;;6.73;;
21593;SDS011;10959;51.328;7.322;2023-02-22T10:11:19;9.43;;;6.73;;
21593;SDS011;10959;51.328;7.322;2023-02-22T10:14:03;7.73;;;5.97;;
21593;SDS011;10959;51.328;7.322;2023-02-22T10:16:39;8.07;;;5.77;;
21593;SDS011;10959;51.328;7.322;2023-02-22T10:22:10;7.53;;;5.50;;
21593;SDS011;10959;51.328;7.322;2023-02-22T10:24:48;7.10;;;5.33;;
21593;SDS011;10959;51.328;7.322;2023-02-22T10:27:25;9.47;;;5.97;;
21593;SDS011;10959;51.328;7.322;2023-02-22T10:29:58;8.27;;;5.17;;
21593;SDS011;10959;51.328;7.322;2023-02-22T10:32:30;6.73;;;4.80;;
21593;SDS011;10959;51.328;7.322;2023-02-22T10:35:03;5.90;;;4.77;;
21593;SDS011;10959;51.328;7.322;2023-02-22T10:37:39;6.87;;;4.80;;
21593;SDS011;10959;51.328;7.322;2023-02-22T10:40:10;4.90;;;4.40;;
21593;SDS011;10959;51.328;7.322;2023-02-22T10:42:41;7.83;;;5.27;;
21593;SDS011;10959;51.328;7.322;2023-02-22T10:45:13;5.43;;;4.20;;
21593;SDS011;10959;51.328;7.322;2023-02-22T10:47:46;8.60;;;4.73;;
21593;SDS011;10959;51.328;7.322;2023-02-22T10:50:15;7.37;;;5.37;;
21593;SDS011;10959;51.328;7.322;2023-02-22T10:52:44;6.63;;;4.70;;
21593;SDS011;10959;51.328;7.322;2023-02-22T10:55:11;7.83;;;5.63;;
21593;SDS011;10959;51.328;7.322;2023-02-22T10:57:38;6.10;;;5.50;;
21593;SDS011;10959;51.328;7.322;2023-02-22T11:00:14;8.10;;;5.33;;
21593;SDS011;10959;51.328;7.322;2023-02-22T11:02:48;6.67;;;5.30;;
21593;SDS011;10959;51.328;7.322;2023-02-22T11:05:26;10.33;;;5.37;;
21593;SDS011;10959;51.328;7.322;2023-02-22T11:08:15;6.27;;;4.83;;
21593;SDS011;10959;51.328;7.322;2023-02-22T11:10:49;6.17;;;5.10;;
21593;SDS011;10959;51.328;7.322;2023-02-22T11:13:18;7.27;;;5.00;;
21593;SDS011;10959;51.328;7.322;2023-02-22T11:15:50;7.67;;;4.90;;
21593;SDS011;10959;51.328;7.322;2023-02-22T11:18:21;5.43;;;4.50;;
21593;SDS011;10959;51.328;7.322;2023-02-22T11:21:00;7.07;;;4.83;;
21593;SDS011;10959;51.328;7.322;2023-02-22T11:23:29;7.90;;;4.90;;
21593;SDS011;10959;51.328;7.322;2023-02-22T11:26:00;7.23;;;4.57;;
21593;SDS011;10959;51.328;7.322;2023-02-22T11:28:31;5.27;;;4.73;;
21593;SDS011;10959;51.328;7.322;2023-02-22T11:31:08;5.50;;;4.37;;
21593;SDS011;10959;51.328;7.322;2023-02-22T11:33:38;5.73;;;4.80;;
21593;SDS011;10959;51.328;7.322;2023-02-22T11:36:06;5.43;;;4.40;;
21593;SDS011;10959;51.328;7.322;2023-02-22T11:38:35;5.67;;;4.33;;
21593;SDS011;10959;51.328;7.322;2023-02-22T11:41:09;5.87;;;4.57;;
21593;SDS011;10959;51.328;7.322;2023-02-22T11:43:39;5.47;;;3.77;;
21593;SDS011;10959;51.328;7.322;2023-02-22T11:46:08;4.60;;;4.00;;
21593;SDS011;10959;51.328;7.322;2023-02-22T11:48:38;5.77;;;4.00;;
21593;SDS011;10959;51.328;7.322;2023-02-22T11:54:08;6.30;;;3.70;;
21593;SDS011;10959;51.328;7.322;2023-02-22T11:56:47;5.30;;;3.97;;
21593;SDS011;10959;51.328;7.322;2023-02-22T11:59:18;5.47;;;3.90;;
21593;SDS011;10959;51.328;7.322;2023-02-22T12:01:55;4.53;;;3.97;;
21593;SDS011;10959;51.328;7.322;2023-02-22T12:04:34;5.33;;;3.87;;
21593;SDS011;10959;51.328;7.322;2023-02-22T12:07:15;5.27;;;3.60;;
21593;SDS011;10959;51.328;7.322;2023-02-22T12:09:50;4.10;;;3.50;;
21593;SDS011;10959;51.328;7.322;2023-02-22T12:12:27;4.50;;;3.53;;
21593;SDS011;10959;51.328;7.322;2023-02-22T12:15:04;4.97;;;3.90;;
21593;SDS011;10959;51.328;7.322;2023-02-22T12:17:43;4.83;;;3.87;;
21593;SDS011;10959;51.328;7.322;2023-02-22T12:20:17;5.33;;;3.80;;
21593;SDS011;10959;51.328;7.322;2023-02-22T12:22:52;5.83;;;3.97;;
21593;SDS011;10959;51.328;7.322;2023-02-22T12:25:25;4.30;;;3.30;;
21593;SDS011;10959;51.328;7.322;2023-02-22T12:27:58;4.67;;;3.43;;
21593;SDS011;10959;51.328;7.322;2023-02-22T12:30:36;4.90;;;4.07;;
21593;SDS011;10959;51.328;7.322;2023-02-22T12:33:09;4.70;;;3.50;;
21593;SDS011;10959;51.328;7.322;2023-02-22T12:35:41;6.27;;;4.00;;
21593;SDS011;10959;51.328;7.322;2023-02-22T12:38:17;6.67;;;3.73;;
21593;SDS011;10959;51.328;7.322;2023-02-22T12:40:51;5.67;;;3.60;;
21593;SDS011;10959;51.328;7.322;2023-02-22T12:43:22;4.00;;;3.13;;
21593;SDS011;10959;51.328;7.322;2023-02-22T12:45:56;6.10;;;4.10;;
21593;SDS011;10959;51.328;7.322;2023-02-22T12:48:30;5.93;;;3.73;;
21593;SDS011;10959;51.328;7.322;2023-02-22T12:51:06;7.60;;;4.67;;
21593;SDS011;10959;51.328;7.322;2023-02-22T12:53:45;4.87;;;3.83;;
21593;SDS011;10959;51.328;7.322;2023-02-22T12:56:20;4.07;;;3.67;;
21593;SDS011;10959;51.328;7.322;2023-02-22T12:58:53;4.53;;;3.83;;
21593;SDS011;10959;51.328;7.322;2023-02-22T13:01:24;4.10;;;3.67;;
21593;SDS011;10959;51.328;7.322;2023-02-22T13:03:58;5.77;;;3.93;;
21593;SDS011;10959;51.328;7.322;2023-02-22T13:06:31;4.67;;;4.13;;
21593;SDS011;10959;51.328;7.322;2023-02-22T13:09:12;4.77;;;3.60;;
21593;SDS011;10959;51.328;7.322;2023-02-22T13:12:04;5.20;;;3.77;;
21593;SDS011;10959;51.328;7.322;2023-02-22T13:14:42;5.53;;;3.93;;
21593;SDS011;10959;51.328;7.322;2023-02-22T13:17:20;5.17;;;4.03;;
21593;SDS011;10959;51.328;7.322;2023-02-22T13:19:55;7.03;;;3.67;;
21593;SDS011;10959;51.328;7.322;2023-02-22T13:22:28;6.93;;;4.53;;
21593;SDS011;10959;51.328;7.322;2023-02-22T13:25:06;5.80;;;4.30;;
21593;SDS011;10959;51.328;7.322;2023-02-22T13:27:39;6.47;;;4.70;;
21593;SDS011;10959;51.328;7.322;2023-02-22T13:30:14;7.50;;;4.90;;
21593;SDS011;10959;51.328;7.322;2023-02-22T13:32:51;7.40;;;4.77;;
21593;SDS011;10959;51.328;7.322;2023-02-22T13:35:35;5.90;;;4.53;;
21593;SDS011;10959;51.328;7.322;2023-02-22T13:38:26;6.27;;;4.93;;
21593;SDS011;10959;51.328;7.322;2023-02-22T13:41:19;6.13;;;4.63;;
21593;SDS011;10959;51.328;7.322;2023-02-22T13:44:06;6.87;;;4.80;;
21593;SDS011;10959;51.328;7.322;2023-02-22T13:47:06;7.43;;;4.53;;
21593;SDS011;10959;51.328;7.322;2023-02-22T13:52:51;6.03;;;4.50;;
21593;SDS011;10959;51.328;7.322;2023-02-22T13:55:21;5.63;;;4.20;;
21593;SDS011;10959;51.328;7.322;2023-02-22T13:57:58;5.60;;;4.10;;
21593;SDS011;10959;51.328;7.322;2023-02-22T14:03:29;6.10;;;3.77;;
21593;SDS011;10959;51.328;7.322;2023-02-22T14:06:00;5.60;;;4.07;;
21593;SDS011;10959;51.328;7.322;2023-02-22T14:08:37;6.37;;;4.20;;
21593;SDS011;10959;51.328;7.322;2023-02-22T14:14:17;5.07;;;4.40;;
21593;SDS011;10959;51.328;7.322;2023-02-22T14:16:44;6.47;;;4.80;;
21593;SDS011;10959;51.328;7.322;2023-02-22T14:20:00;6.07;;;4.20;;
21593;SDS011;10959;51.328;7.322;2023-02-22T14:22:44;4.60;;;4.13;;
21593;SDS011;10959;51.328;7.322;2023-02-22T14:27:57;6.07;;;4.10;;
21593;SDS011;10959;51.328;7.322;2023-02-22T14:30:28;6.23;;;4.70;;
21593;SDS011;10959;51.328;7.322;2023-02-22T14:32:56;5.47;;;4.10;;
21593;SDS011;10959;51.328;7.322;2023-02-22T14:35:24;6.73;;;4.70;;
21593;SDS011;10959;51.328;7.322;2023-02-22T14:37:57;5.00;;;4.10;;
21593;SDS011;10959;51.328;7.322;2023-02-22T14:40:26;5.90;;;4.33;;
21593;SDS011;10959;51.328;7.322;2023-02-22T14:42:57;5.23;;;4.00;;
21593;SDS011;10959;51.328;7.322;2023-02-22T14:45:30;6.13;;;4.57;;
21593;SDS011;10959;51.328;7.322;2023-02-22T14:47:59;5.43;;;4.63;;
21593;SDS011;10959;51.328;7.322;2023-02-22T14:50:41;7.07;;;4.80;;
21593;SDS011;10959;51.328;7.322;2023-02-22T14:53:15;5.93;;;4.70;;
21593;SDS011;10959;51.328;7.322;2023-02-22T14:55:50;5.87;;;4.17;;
21593;SDS011;10959;51.328;7.322;2023-02-22T14:58:22;6.87;;;5.00;;
21593;SDS011;10959;51.328;7.322;2023-02-22T15:00:55;6.77;;;4.67;;
21593;SDS011;10959;51.328;7.322;2023-02-22T15:03:25;6.93;;;4.33;;
21593;SDS011;10959;51.328;7.322;2023-02-22T15:06:02;6.97;;;4.03;;
21593;SDS011;10959;51.328;7.322;2023-02-22T15:08:29;5.50;;;4.37;;
21593;SDS011;10959;51.328;7.322;2023-02-22T15:10:58;7.10;;;4.33;;